sensor_id;sensor_type;location;lat;lon;timestamp;P1;durP1;ratioP1;P2;durP2;ratioP2
44068;SDS011;29738;51.234;5.484;2023-02-28T00:01:02;4.30;;;2.55;;
44068;SDS011;29738;51.234;5.484;2023-02-28T00:03:28;3.13;;;2.13;;
44068;SDS011;29738;51.234;5.484;2023-02-28T00:05:54;3.25;;;1.95;;
44068;SDS011;29738;51.234;5.484;2023-02-28T00:08:20;5.97;;;2.60;;
44068;SDS011;29738;51.234;5.484;2023-02-28T00:10:45;7.70;;;4.15;;
44068;SDS011;29738;51.234;5.484;2023-02-28T00:13:11;7.07;;;3.63;;
44068;SDS011;29738;51.234;5.484;2023-02-28T00:15:38;7.32;;;3.83;;
44068;SDS011;29738;51.234;5.484;2023-02-28T00:18:03;6.47;;;3.50;;
44068;SDS011;29738;51.234;5.484;2023-02-28T00:20:29;6.10;;;3.15;;
44068;SDS011;29738;51.234;5.484;2023-02-28T00:22:55;9.13;;;5.13;;
44068;SDS011;29738;51.234;5.484;2023-02-28T00:25:22;8.10;;;4.25;;
44068;SDS011;29738;51.234;5.484;2023-02-28T00:27:49;4.53;;;3.00;;
44068;SDS011;29738;51.234;5.484;2023-02-28T00:30:18;7.05;;;3.78;;
44068;SDS011;29738;51.234;5.484;2023-02-28T00:32:45;5.88;;;3.78;;
44068;SDS011;29738;51.234;5.484;2023-02-28T00:35:11;4.60;;;3.50;;
44068;SDS011;29738;51.234;5.484;2023-02-28T00:37:38;7.13;;;3.80;;
44068;SDS011;29738;51.234;5.484;2023-02-28T00:40:04;6.78;;;4.55;;
44068;SDS011;29738;51.234;5.484;2023-02-28T00:42:31;5.22;;;3.03;;
44068;SDS011;29738;51.234;5.484;2023-02-28T00:44:58;7.95;;;4.40;;
44068;SDS011;29738;51.234;5.484;2023-02-28T00:47:23;6.60;;;3.65;;
44068;SDS011;29738;51.234;5.484;2023-02-28T00:49:49;6.65;;;4.22;;
44068;SDS011;29738;51.234;5.484;2023-02-28T00:52:15;4.93;;;3.17;;
44068;SDS011;29738;51.234;5.484;2023-02-28T00:54:41;10.63;;;5.10;;
44068;SDS011;29738;51.234;5.484;2023-02-28T00:57:07;10.85;;;5.43;;
44068;SDS011;29738;51.234;5.484;2023-02-28T00:59:32;6.47;;;4.13;;
44068;SDS011;29738;51.234;5.484;2023-02-28T01:01:58;8.07;;;4.20;;
44068;SDS011;29738;51.234;5.484;2023-02-28T01:04:24;7.63;;;4.43;;
44068;SDS011;29738;51.234;5.484;2023-02-28T01:06:50;5.63;;;3.25;;
44068;SDS011;29738;51.234;5.484;2023-02-28T01:09:15;8.05;;;3.95;;
44068;SDS011;29738;51.234;5.484;2023-02-28T01:11:41;7.85;;;4.20;;
44068;SDS011;29738;51.234;5.484;2023-02-28T01:14:10;6.28;;;4.40;;
44068;SDS011;29738;51.234;5.484;2023-02-28T01:16:38;7.72;;;4.28;;
44068;SDS011;29738;51.234;5.484;2023-02-28T01:19:04;9.50;;;5.22;;
44068;SDS011;29738;51.234;5.484;2023-02-28T01:21:30;8.88;;;4.43;;
44068;SDS011;29738;51.234;5.484;2023-02-28T01:23:56;11.52;;;5.15;;
44068;SDS011;29738;51.234;5.484;2023-02-28T01:26:23;10.95;;;6.13;;
44068;SDS011;29738;51.234;5.484;2023-02-28T01:28:50;10.02;;;5.85;;
44068;SDS011;29738;51.234;5.484;2023-02-28T01:31:17;11.48;;;6.13;;
44068;SDS011;29738;51.234;5.484;2023-02-28T01:33:43;8.45;;;5.43;;
44068;SDS011;29738;51.234;5.484;2023-02-28T01:36:10;14.90;;;5.53;;
44068;SDS011;29738;51.234;5.484;2023-02-28T01:38:41;14.23;;;5.47;;
44068;SDS011;29738;51.234;5.484;2023-02-28T01:41:08;8.57;;;4.57;;
44068;SDS011;29738;51.234;5.484;2023-02-28T01:46:09;8.52;;;5.20;;
44068;SDS011;29738;51.234;5.484;2023-02-28T01:48:37;10.30;;;6.35;;
44068;SDS011;29738;51.234;5.484;2023-02-28T01:51:08;8.27;;;3.97;;
44068;SDS011;29738;51.234;5.484;2023-02-28T01:53:44;11.43;;;5.28;;
44068;SDS011;29738;51.234;5.484;2023-02-28T01:56:16;8.35;;;5.22;;
44068;SDS011;29738;51.234;5.484;2023-02-28T01:58:50;8.73;;;4.95;;
44068;SDS011;29738;51.234;5.484;2023-02-28T02:01:17;10.90;;;5.10;;
44068;SDS011;29738;51.234;5.484;2023-02-28T02:03:51;7.40;;;4.18;;
44068;SDS011;29738;51.234;5.484;2023-02-28T02:06:25;8.50;;;5.32;;
44068;SDS011;29738;51.234;5.484;2023-02-28T02:08:54;10.80;;;6.60;;
44068;SDS011;29738;51.234;5.484;2023-02-28T02:11:20;11.05;;;5.47;;
44068;SDS011;29738;51.234;5.484;2023-02-28T02:25:16;7.93;;;5.70;;
44068;SDS011;29738;51.234;5.484;2023-02-28T02:33:23;9.02;;;4.78;;
44068;SDS011;29738;51.234;5.484;2023-02-28T02:42:21;8.15;;;4.85;;
44068;SDS011;29738;51.234;5.484;2023-02-28T02:44:57;6.10;;;4.13;;
44068;SDS011;29738;51.234;5.484;2023-02-28T02:47:39;7.30;;;4.20;;
44068;SDS011;29738;51.234;5.484;2023-02-28T02:50:08;7.38;;;4.22;;
44068;SDS011;29738;51.234;5.484;2023-02-28T02:52:44;5.85;;;3.60;;
44068;SDS011;29738;51.234;5.484;2023-02-28T02:55:14;8.02;;;4.05;;
44068;SDS011;29738;51.234;5.484;2023-02-28T02:57:46;5.97;;;3.67;;
44068;SDS011;29738;51.234;5.484;2023-02-28T03:00:23;7.70;;;3.97;;
44068;SDS011;29738;51.234;5.484;2023-02-28T03:02:54;8.20;;;4.28;;
44068;SDS011;29738;51.234;5.484;2023-02-28T03:05:26;11.40;;;4.95;;
44068;SDS011;29738;51.234;5.484;2023-02-28T03:07:55;8.73;;;5.00;;
44068;SDS011;29738;51.234;5.484;2023-02-28T03:13:11;8.02;;;5.05;;
44068;SDS011;29738;51.234;5.484;2023-02-28T03:21:11;7.88;;;3.28;;
44068;SDS011;29738;51.234;5.484;2023-02-28T03:23:59;6.97;;;4.55;;
44068;SDS011;29738;51.234;5.484;2023-02-28T03:26:33;9.32;;;5.07;;
44068;SDS011;29738;51.234;5.484;2023-02-28T03:29:05;5.10;;;2.67;;
44068;SDS011;29738;51.234;5.484;2023-02-28T03:31:49;9.88;;;4.35;;
44068;SDS011;29738;51.234;5.484;2023-02-28T03:34:24;14.23;;;4.63;;
44068;SDS011;29738;51.234;5.484;2023-02-28T03:36:59;6.93;;;4.15;;
44068;SDS011;29738;51.234;5.484;2023-02-28T03:39:37;9.23;;;4.88;;
44068;SDS011;29738;51.234;5.484;2023-02-28T03:42:24;7.43;;;4.68;;
44068;SDS011;29738;51.234;5.484;2023-02-28T03:50:43;8.75;;;5.05;;
44068;SDS011;29738;51.234;5.484;2023-02-28T03:55:59;7.85;;;3.30;;
44068;SDS011;29738;51.234;5.484;2023-02-28T03:58:39;8.48;;;4.43;;
44068;SDS011;29738;51.234;5.484;2023-02-28T04:01:23;7.88;;;4.35;;
44068;SDS011;29738;51.234;5.484;2023-02-28T04:03:57;8.07;;;4.05;;
44068;SDS011;29738;51.234;5.484;2023-02-28T04:06:23;6.78;;;3.65;;
44068;SDS011;29738;51.234;5.484;2023-02-28T04:08:50;9.13;;;4.85;;
44068;SDS011;29738;51.234;5.484;2023-02-28T04:13:55;8.05;;;4.57;;
44068;SDS011;29738;51.234;5.484;2023-02-28T04:16:21;8.18;;;4.28;;
44068;SDS011;29738;51.234;5.484;2023-02-28T04:18:47;9.25;;;4.15;;
44068;SDS011;29738;51.234;5.484;2023-02-28T04:21:12;8.43;;;5.00;;
44068;SDS011;29738;51.234;5.484;2023-02-28T04:23:38;13.75;;;5.00;;
44068;SDS011;29738;51.234;5.484;2023-02-28T04:26:04;14.65;;;4.90;;
44068;SDS011;29738;51.234;5.484;2023-02-28T04:28:31;9.20;;;4.32;;
44068;SDS011;29738;51.234;5.484;2023-02-28T04:30:58;11.00;;;3.90;;
44068;SDS011;29738;51.234;5.484;2023-02-28T04:33:26;11.23;;;4.63;;
44068;SDS011;29738;51.234;5.484;2023-02-28T04:36:03;7.75;;;3.95;;
44068;SDS011;29738;51.234;5.484;2023-02-28T04:38:37;7.93;;;3.90;;
44068;SDS011;29738;51.234;5.484;2023-02-28T04:41:04;8.32;;;5.30;;
44068;SDS011;29738;51.234;5.484;2023-02-28T04:43:30;8.30;;;4.75;;
44068;SDS011;29738;51.234;5.484;2023-02-28T04:45:57;9.07;;;4.32;;
44068;SDS011;29738;51.234;5.484;2023-02-28T04:48:27;6.25;;;4.18;;
44068;SDS011;29738;51.234;5.484;2023-02-28T04:50:54;6.10;;;3.80;;
44068;SDS011;29738;51.234;5.484;2023-02-28T04:53:20;9.05;;;5.00;;
44068;SDS011;29738;51.234;5.484;2023-02-28T04:55:46;7.93;;;4.65;;
44068;SDS011;29738;51.234;5.484;2023-02-28T04:58:15;8.60;;;4.32;;
44068;SDS011;29738;51.234;5.484;2023-02-28T05:00:41;10.90;;;4.78;;
44068;SDS011;29738;51.234;5.484;2023-02-28T05:03:07;9.35;;;5.22;;
44068;SDS011;29738;51.234;5.484;2023-02-28T05:05:33;7.90;;;4.53;;
44068;SDS011;29738;51.234;5.484;2023-02-28T05:07:58;8.85;;;5.03;;
44068;SDS011;29738;51.234;5.484;2023-02-28T05:10:24;9.63;;;5.53;;
44068;SDS011;29738;51.234;5.484;2023-02-28T05:12:50;6.40;;;4.03;;
44068;SDS011;29738;51.234;5.484;2023-02-28T05:15:16;10.70;;;4.93;;
44068;SDS011;29738;51.234;5.484;2023-02-28T05:17:43;8.68;;;5.22;;
44068;SDS011;29738;51.234;5.484;2023-02-28T05:20:10;8.20;;;4.68;;
44068;SDS011;29738;51.234;5.484;2023-02-28T05:22:38;7.25;;;3.10;;
44068;SDS011;29738;51.234;5.484;2023-02-28T05:25:04;8.27;;;4.90;;
44068;SDS011;29738;51.234;5.484;2023-02-28T05:27:30;11.48;;;5.43;;
44068;SDS011;29738;51.234;5.484;2023-02-28T05:29:56;8.82;;;4.35;;
44068;SDS011;29738;51.234;5.484;2023-02-28T05:32:22;11.07;;;4.28;;
44068;SDS011;29738;51.234;5.484;2023-02-28T05:34:48;7.63;;;3.30;;
44068;SDS011;29738;51.234;5.484;2023-02-28T05:37:14;4.80;;;2.92;;
44068;SDS011;29738;51.234;5.484;2023-02-28T05:39:41;5.53;;;3.38;;
44068;SDS011;29738;51.234;5.484;2023-02-28T05:42:07;8.02;;;3.95;;
44068;SDS011;29738;51.234;5.484;2023-02-28T05:44:34;7.35;;;4.35;;
44068;SDS011;29738;51.234;5.484;2023-02-28T05:47:00;7.28;;;3.67;;
44068;SDS011;29738;51.234;5.484;2023-02-28T05:49:26;6.53;;;3.95;;
44068;SDS011;29738;51.234;5.484;2023-02-28T05:51:51;5.15;;;3.40;;
44068;SDS011;29738;51.234;5.484;2023-02-28T05:54:17;4.90;;;3.28;;
44068;SDS011;29738;51.234;5.484;2023-02-28T05:56:43;6.32;;;3.90;;
44068;SDS011;29738;51.234;5.484;2023-02-28T05:59:10;8.38;;;3.75;;
44068;SDS011;29738;51.234;5.484;2023-02-28T06:01:41;5.78;;;3.10;;
44068;SDS011;29738;51.234;5.484;2023-02-28T06:04:15;6.60;;;4.07;;
44068;SDS011;29738;51.234;5.484;2023-02-28T06:06:51;6.90;;;3.90;;
44068;SDS011;29738;51.234;5.484;2023-02-28T06:09:17;10.63;;;2.88;;
44068;SDS011;29738;51.234;5.484;2023-02-28T06:11:44;2.63;;;2.05;;
44068;SDS011;29738;51.234;5.484;2023-02-28T06:14:14;5.97;;;4.40;;
44068;SDS011;29738;51.234;5.484;2023-02-28T06:16:42;3.53;;;2.28;;
44068;SDS011;29738;51.234;5.484;2023-02-28T06:19:08;5.40;;;3.42;;
44068;SDS011;29738;51.234;5.484;2023-02-28T06:21:35;6.90;;;3.22;;
44068;SDS011;29738;51.234;5.484;2023-02-28T06:24:01;2.28;;;1.42;;
44068;SDS011;29738;51.234;5.484;2023-02-28T06:26:28;4.20;;;2.95;;
44068;SDS011;29738;51.234;5.484;2023-02-28T06:28:54;6.55;;;2.92;;
44068;SDS011;29738;51.234;5.484;2023-02-28T06:31:20;4.47;;;3.72;;
44068;SDS011;29738;51.234;5.484;2023-02-28T06:33:47;4.75;;;3.47;;
44068;SDS011;29738;51.234;5.484;2023-02-28T06:36:14;5.50;;;2.88;;
44068;SDS011;29738;51.234;5.484;2023-02-28T06:38:41;4.68;;;3.35;;
44068;SDS011;29738;51.234;5.484;2023-02-28T06:41:07;3.67;;;1.98;;
44068;SDS011;29738;51.234;5.484;2023-02-28T06:43:35;2.80;;;1.35;;
44068;SDS011;29738;51.234;5.484;2023-02-28T06:46:04;4.47;;;2.35;;
44068;SDS011;29738;51.234;5.484;2023-02-28T06:48:32;7.32;;;3.50;;
44068;SDS011;29738;51.234;5.484;2023-02-28T06:51:05;4.43;;;2.67;;
44068;SDS011;29738;51.234;5.484;2023-02-28T06:53:33;3.83;;;2.40;;
44068;SDS011;29738;51.234;5.484;2023-02-28T06:56:03;7.97;;;1.95;;
44068;SDS011;29738;51.234;5.484;2023-02-28T06:58:31;5.60;;;3.03;;
44068;SDS011;29738;51.234;5.484;2023-02-28T07:00:57;4.72;;;2.85;;
44068;SDS011;29738;51.234;5.484;2023-02-28T07:03:23;8.90;;;4.95;;
44068;SDS011;29738;51.234;5.484;2023-02-28T07:05:49;5.13;;;2.97;;
44068;SDS011;29738;51.234;5.484;2023-02-28T07:08:14;4.90;;;3.03;;
44068;SDS011;29738;51.234;5.484;2023-02-28T07:10:40;6.00;;;3.80;;
44068;SDS011;29738;51.234;5.484;2023-02-28T07:13:07;5.75;;;2.97;;
44068;SDS011;29738;51.234;5.484;2023-02-28T07:15:33;2.97;;;2.40;;
44068;SDS011;29738;51.234;5.484;2023-02-28T07:18:00;3.42;;;2.15;;
44068;SDS011;29738;51.234;5.484;2023-02-28T07:20:26;4.53;;;3.22;;
44068;SDS011;29738;51.234;5.484;2023-02-28T07:22:51;1.95;;;1.45;;
44068;SDS011;29738;51.234;5.484;2023-02-28T07:25:25;4.38;;;2.50;;
44068;SDS011;29738;51.234;5.484;2023-02-28T07:27:52;3.42;;;2.08;;
44068;SDS011;29738;51.234;5.484;2023-02-28T07:30:19;2.25;;;2.00;;
44068;SDS011;29738;51.234;5.484;2023-02-28T07:32:45;2.67;;;1.70;;
44068;SDS011;29738;51.234;5.484;2023-02-28T07:35:11;3.95;;;2.15;;
44068;SDS011;29738;51.234;5.484;2023-02-28T07:37:37;3.75;;;2.60;;
44068;SDS011;29738;51.234;5.484;2023-02-28T07:40:06;4.65;;;2.25;;
44068;SDS011;29738;51.234;5.484;2023-02-28T07:42:34;3.22;;;2.58;;
44068;SDS011;29738;51.234;5.484;2023-02-28T07:45:01;4.25;;;2.75;;
44068;SDS011;29738;51.234;5.484;2023-02-28T07:47:28;4.97;;;2.60;;
44068;SDS011;29738;51.234;5.484;2023-02-28T07:49:55;7.35;;;2.95;;
44068;SDS011;29738;51.234;5.484;2023-02-28T07:52:21;4.45;;;2.40;;
44068;SDS011;29738;51.234;5.484;2023-02-28T07:54:48;5.13;;;2.80;;
44068;SDS011;29738;51.234;5.484;2023-02-28T07:57:17;3.92;;;1.95;;
44068;SDS011;29738;51.234;5.484;2023-02-28T07:59:43;3.80;;;2.25;;
44068;SDS011;29738;51.234;5.484;2023-02-28T08:02:13;2.65;;;2.08;;
44068;SDS011;29738;51.234;5.484;2023-02-28T08:04:40;4.88;;;2.88;;
44068;SDS011;29738;51.234;5.484;2023-02-28T08:07:05;5.00;;;2.60;;
44068;SDS011;29738;51.234;5.484;2023-02-28T08:09:31;4.03;;;2.20;;
44068;SDS011;29738;51.234;5.484;2023-02-28T08:11:57;3.78;;;2.55;;
44068;SDS011;29738;51.234;5.484;2023-02-28T08:14:23;5.88;;;2.67;;
44068;SDS011;29738;51.234;5.484;2023-02-28T08:16:51;4.13;;;2.17;;
44068;SDS011;29738;51.234;5.484;2023-02-28T08:19:17;3.38;;;1.80;;
44068;SDS011;29738;51.234;5.484;2023-02-28T08:21:43;4.65;;;2.67;;
44068;SDS011;29738;51.234;5.484;2023-02-28T08:24:09;5.78;;;2.00;;
44068;SDS011;29738;51.234;5.484;2023-02-28T08:26:35;5.22;;;2.95;;
44068;SDS011;29738;51.234;5.484;2023-02-28T08:29:00;4.40;;;2.15;;
44068;SDS011;29738;51.234;5.484;2023-02-28T08:31:26;4.13;;;2.67;;
44068;SDS011;29738;51.234;5.484;2023-02-28T08:33:52;6.35;;;2.28;;
44068;SDS011;29738;51.234;5.484;2023-02-28T08:36:20;4.35;;;2.17;;
44068;SDS011;29738;51.234;5.484;2023-02-28T08:38:46;5.68;;;2.25;;
44068;SDS011;29738;51.234;5.484;2023-02-28T08:41:12;4.40;;;2.00;;
44068;SDS011;29738;51.234;5.484;2023-02-28T08:43:39;3.50;;;2.00;;
44068;SDS011;29738;51.234;5.484;2023-02-28T08:46:05;4.63;;;2.40;;
44068;SDS011;29738;51.234;5.484;2023-02-28T08:48:32;4.07;;;2.78;;
44068;SDS011;29738;51.234;5.484;2023-02-28T08:51:01;6.10;;;2.40;;
44068;SDS011;29738;51.234;5.484;2023-02-28T08:53:28;4.50;;;2.05;;
44068;SDS011;29738;51.234;5.484;2023-02-28T08:55:56;3.72;;;2.08;;
44068;SDS011;29738;51.234;5.484;2023-02-28T08:58:23;3.45;;;1.92;;
44068;SDS011;29738;51.234;5.484;2023-02-28T09:00:49;3.20;;;1.73;;
44068;SDS011;29738;51.234;5.484;2023-02-28T09:03:15;4.47;;;2.53;;
44068;SDS011;29738;51.234;5.484;2023-02-28T09:05:50;4.00;;;1.98;;
44068;SDS011;29738;51.234;5.484;2023-02-28T09:08:20;6.72;;;2.08;;
44068;SDS011;29738;51.234;5.484;2023-02-28T09:10:46;3.97;;;1.75;;
44068;SDS011;29738;51.234;5.484;2023-02-28T09:13:12;4.18;;;1.88;;
44068;SDS011;29738;51.234;5.484;2023-02-28T09:15:38;7.20;;;2.90;;
44068;SDS011;29738;51.234;5.484;2023-02-28T09:18:04;3.00;;;1.67;;
44068;SDS011;29738;51.234;5.484;2023-02-28T09:20:30;4.47;;;2.22;;
44068;SDS011;29738;51.234;5.484;2023-02-28T09:22:55;3.35;;;1.70;;
44068;SDS011;29738;51.234;5.484;2023-02-28T09:25:21;6.40;;;1.90;;
44068;SDS011;29738;51.234;5.484;2023-02-28T09:27:47;5.53;;;2.00;;
44068;SDS011;29738;51.234;5.484;2023-02-28T09:30:13;3.75;;;1.95;;
44068;SDS011;29738;51.234;5.484;2023-02-28T09:32:39;3.75;;;1.98;;
44068;SDS011;29738;51.234;5.484;2023-02-28T09:35:05;4.00;;;1.70;;
44068;SDS011;29738;51.234;5.484;2023-02-28T09:37:31;3.63;;;2.00;;
44068;SDS011;29738;51.234;5.484;2023-02-28T09:39:57;2.83;;;1.40;;
44068;SDS011;29738;51.234;5.484;2023-02-28T09:42:25;3.50;;;1.83;;
44068;SDS011;29738;51.234;5.484;2023-02-28T09:44:56;2.28;;;1.38;;
44068;SDS011;29738;51.234;5.484;2023-02-28T09:47:27;3.28;;;1.60;;
44068;SDS011;29738;51.234;5.484;2023-02-28T09:50:06;4.85;;;1.95;;
44068;SDS011;29738;51.234;5.484;2023-02-28T09:52:48;2.80;;;1.30;;
44068;SDS011;29738;51.234;5.484;2023-02-28T09:57:59;3.30;;;1.58;;
44068;SDS011;29738;51.234;5.484;2023-02-28T10:00:46;3.78;;;1.60;;
44068;SDS011;29738;51.234;5.484;2023-02-28T10:03:25;3.90;;;2.15;;
44068;SDS011;29738;51.234;5.484;2023-02-28T10:11:22;5.32;;;2.55;;
44068;SDS011;29738;51.234;5.484;2023-02-28T10:13:55;4.43;;;2.03;;
44068;SDS011;29738;51.234;5.484;2023-02-28T10:16:36;2.72;;;1.52;;
44068;SDS011;29738;51.234;5.484;2023-02-28T10:22:11;2.42;;;1.38;;
44068;SDS011;29738;51.234;5.484;2023-02-28T10:24:44;3.35;;;1.95;;
44068;SDS011;29738;51.234;5.484;2023-02-28T10:29:54;3.88;;;1.98;;
44068;SDS011;29738;51.234;5.484;2023-02-28T10:32:22;4.85;;;1.73;;
44068;SDS011;29738;51.234;5.484;2023-02-28T10:37:34;2.38;;;1.20;;
44068;SDS011;29738;51.234;5.484;2023-02-28T10:40:04;4.60;;;1.83;;
44068;SDS011;29738;51.234;5.484;2023-02-28T10:42:31;3.38;;;1.70;;
44068;SDS011;29738;51.234;5.484;2023-02-28T10:47:56;3.30;;;1.90;;
44068;SDS011;29738;51.234;5.484;2023-02-28T10:50:37;3.33;;;1.25;;
44068;SDS011;29738;51.234;5.484;2023-02-28T10:53:14;2.67;;;1.80;;
44068;SDS011;29738;51.234;5.484;2023-02-28T10:58:30;2.83;;;1.40;;
44068;SDS011;29738;51.234;5.484;2023-02-28T11:04:00;2.15;;;1.13;;
44068;SDS011;29738;51.234;5.484;2023-02-28T11:06:35;5.13;;;2.05;;
44068;SDS011;29738;51.234;5.484;2023-02-28T11:09:05;4.43;;;1.88;;
44068;SDS011;29738;51.234;5.484;2023-02-28T11:11:46;5.13;;;2.20;;
44068;SDS011;29738;51.234;5.484;2023-02-28T11:14:21;4.55;;;2.30;;
44068;SDS011;29738;51.234;5.484;2023-02-28T11:16:50;3.75;;;2.03;;
44068;SDS011;29738;51.234;5.484;2023-02-28T11:19:19;5.15;;;2.25;;
44068;SDS011;29738;51.234;5.484;2023-02-28T11:22:03;5.35;;;3.03;;
44068;SDS011;29738;51.234;5.484;2023-02-28T11:29:58;3.65;;;1.80;;
44068;SDS011;29738;51.234;5.484;2023-02-28T11:32:26;4.22;;;1.50;;
44068;SDS011;29738;51.234;5.484;2023-02-28T11:37:34;4.30;;;2.10;;
44068;SDS011;29738;51.234;5.484;2023-02-28T11:40:01;4.28;;;1.90;;
44068;SDS011;29738;51.234;5.484;2023-02-28T11:42:40;4.15;;;1.90;;
44068;SDS011;29738;51.234;5.484;2023-02-28T11:45:22;4.22;;;1.45;;
44068;SDS011;29738;51.234;5.484;2023-02-28T11:51:03;1.88;;;1.05;;
44068;SDS011;29738;51.234;5.484;2023-02-28T11:59:15;2.40;;;1.50;;
44068;SDS011;29738;51.234;5.484;2023-02-28T12:02:06;3.40;;;1.40;;
44068;SDS011;29738;51.234;5.484;2023-02-28T12:05:11;3.42;;;1.73;;
44068;SDS011;29738;51.234;5.484;2023-02-28T12:11:43;2.95;;;1.42;;
44068;SDS011;29738;51.234;5.484;2023-02-28T12:13:53;4.05;;;1.27;;
44068;SDS011;29738;51.234;5.484;2023-02-28T12:19:31;2.50;;;1.30;;
44068;SDS011;29738;51.234;5.484;2023-02-28T12:27:43;3.88;;;1.90;;
44068;SDS011;29738;51.234;5.484;2023-02-28T12:30:31;3.47;;;1.70;;
44068;SDS011;29738;51.234;5.484;2023-02-28T12:33:06;2.95;;;1.35;;
44068;SDS011;29738;51.234;5.484;2023-02-28T12:35:37;5.75;;;1.90;;
44068;SDS011;29738;51.234;5.484;2023-02-28T12:38:10;3.03;;;1.67;;
44068;SDS011;29738;51.234;5.484;2023-02-28T12:40:45;3.53;;;1.80;;
44068;SDS011;29738;51.234;5.484;2023-02-28T12:43:16;3.20;;;1.83;;
44068;SDS011;29738;51.234;5.484;2023-02-28T12:45:48;3.95;;;2.03;;
44068;SDS011;29738;51.234;5.484;2023-02-28T12:48:24;3.65;;;1.65;;
44068;SDS011;29738;51.234;5.484;2023-02-28T12:50:56;2.97;;;1.48;;
44068;SDS011;29738;51.234;5.484;2023-02-28T12:53:28;6.82;;;2.42;;
44068;SDS011;29738;51.234;5.484;2023-02-28T12:56:12;5.07;;;1.90;;
44068;SDS011;29738;51.234;5.484;2023-02-28T13:09:24;7.78;;;2.25;;
44068;SDS011;29738;51.234;5.484;2023-02-28T13:11:50;7.15;;;2.42;;
44068;SDS011;29738;51.234;5.484;2023-02-28T13:14:35;9.70;;;3.00;;
44068;SDS011;29738;51.234;5.484;2023-02-28T13:19:35;5.07;;;2.53;;
44068;SDS011;29738;51.234;5.484;2023-02-28T13:22:37;3.72;;;2.03;;
44068;SDS011;29738;51.234;5.484;2023-02-28T13:27:50;3.60;;;2.08;;
44068;SDS011;29738;51.234;5.484;2023-02-28T13:33:26;3.95;;;2.28;;
44068;SDS011;29738;51.234;5.484;2023-02-28T13:38:48;3.92;;;1.83;;
44068;SDS011;29738;51.234;5.484;2023-02-28T13:46:24;4.20;;;2.40;;
44068;SDS011;29738;51.234;5.484;2023-02-28T13:48:50;4.50;;;2.13;;
44068;SDS011;29738;51.234;5.484;2023-02-28T13:51:37;5.22;;;2.67;;
44068;SDS011;29738;51.234;5.484;2023-02-28T13:56:44;4.18;;;2.20;;
44068;SDS011;29738;51.234;5.484;2023-02-28T14:10:05;4.75;;;2.15;;
44068;SDS011;29738;51.234;5.484;2023-02-28T14:15:25;4.03;;;2.42;;
44068;SDS011;29738;51.234;5.484;2023-02-28T14:17:58;3.20;;;1.88;;
44068;SDS011;29738;51.234;5.484;2023-02-28T14:20:30;4.07;;;1.70;;
44068;SDS011;29738;51.234;5.484;2023-02-28T14:23:07;4.13;;;1.67;;
44068;SDS011;29738;51.234;5.484;2023-02-28T14:33:55;3.22;;;1.77;;
44068;SDS011;29738;51.234;5.484;2023-02-28T14:36:42;3.60;;;1.40;;
44068;SDS011;29738;51.234;5.484;2023-02-28T14:39:24;3.67;;;1.50;;
44068;SDS011;29738;51.234;5.484;2023-02-28T14:41:51;2.78;;;1.52;;
44068;SDS011;29738;51.234;5.484;2023-02-28T14:44:24;3.90;;;1.83;;
44068;SDS011;29738;51.234;5.484;2023-02-28T14:46:54;4.22;;;1.90;;
44068;SDS011;29738;51.234;5.484;2023-02-28T14:49:36;4.32;;;2.42;;
44068;SDS011;29738;51.234;5.484;2023-02-28T14:52:20;4.80;;;2.60;;
44068;SDS011;29738;51.234;5.484;2023-02-28T14:54:52;3.88;;;2.20;;
44068;SDS011;29738;51.234;5.484;2023-02-28T14:57:24;5.13;;;1.77;;
44068;SDS011;29738;51.234;5.484;2023-02-28T15:02:30;4.22;;;2.05;;
44068;SDS011;29738;51.234;5.484;2023-02-28T15:05:00;4.50;;;1.80;;
44068;SDS011;29738;51.234;5.484;2023-02-28T15:07:48;4.38;;;1.90;;
44068;SDS011;29738;51.234;5.484;2023-02-28T15:10:25;3.53;;;1.70;;
44068;SDS011;29738;51.234;5.484;2023-02-28T15:12:58;3.75;;;1.90;;
44068;SDS011;29738;51.234;5.484;2023-02-28T15:15:33;3.17;;;1.75;;
44068;SDS011;29738;51.234;5.484;2023-02-28T15:18:07;3.85;;;1.90;;
44068;SDS011;29738;51.234;5.484;2023-02-28T15:20:42;3.92;;;1.85;;
44068;SDS011;29738;51.234;5.484;2023-02-28T15:23:09;5.22;;;2.60;;
44068;SDS011;29738;51.234;5.484;2023-02-28T15:25:36;4.20;;;2.22;;
44068;SDS011;29738;51.234;5.484;2023-02-28T15:28:02;4.65;;;1.88;;
44068;SDS011;29738;51.234;5.484;2023-02-28T15:30:28;5.90;;;2.85;;
44068;SDS011;29738;51.234;5.484;2023-02-28T15:33:03;4.93;;;2.30;;
44068;SDS011;29738;51.234;5.484;2023-02-28T15:35:43;6.50;;;2.78;;
44068;SDS011;29738;51.234;5.484;2023-02-28T15:38:26;5.00;;;1.90;;
44068;SDS011;29738;51.234;5.484;2023-02-28T15:40:53;3.78;;;1.85;;
44068;SDS011;29738;51.234;5.484;2023-02-28T15:43:24;4.70;;;2.42;;
44068;SDS011;29738;51.234;5.484;2023-02-28T15:46:10;4.20;;;2.20;;
44068;SDS011;29738;51.234;5.484;2023-02-28T15:48:49;4.32;;;2.08;;
44068;SDS011;29738;51.234;5.484;2023-02-28T15:51:22;4.40;;;2.25;;
44068;SDS011;29738;51.234;5.484;2023-02-28T15:56:25;4.60;;;2.00;;
44068;SDS011;29738;51.234;5.484;2023-02-28T15:58:54;3.50;;;1.67;;
44068;SDS011;29738;51.234;5.484;2023-02-28T16:01:26;4.00;;;2.20;;
44068;SDS011;29738;51.234;5.484;2023-02-28T16:03:55;6.38;;;3.20;;
44068;SDS011;29738;51.234;5.484;2023-02-28T16:09:05;4.82;;;2.30;;
44068;SDS011;29738;51.234;5.484;2023-02-28T16:11:35;3.58;;;2.10;;
44068;SDS011;29738;51.234;5.484;2023-02-28T16:14:04;5.72;;;2.38;;
44068;SDS011;29738;51.234;5.484;2023-02-28T16:16:30;6.50;;;2.45;;
44068;SDS011;29738;51.234;5.484;2023-02-28T16:18:57;4.60;;;2.13;;
44068;SDS011;29738;51.234;5.484;2023-02-28T16:21:24;4.45;;;2.50;;
44068;SDS011;29738;51.234;5.484;2023-02-28T16:23:50;6.88;;;2.65;;
44068;SDS011;29738;51.234;5.484;2023-02-28T16:26:18;4.47;;;2.58;;
44068;SDS011;29738;51.234;5.484;2023-02-28T16:28:47;5.00;;;2.03;;
44068;SDS011;29738;51.234;5.484;2023-02-28T16:31:13;4.15;;;1.90;;
44068;SDS011;29738;51.234;5.484;2023-02-28T16:33:41;4.20;;;2.00;;
44068;SDS011;29738;51.234;5.484;2023-02-28T16:36:19;4.72;;;2.63;;
44068;SDS011;29738;51.234;5.484;2023-02-28T16:38:48;5.72;;;2.92;;
44068;SDS011;29738;51.234;5.484;2023-02-28T16:41:23;6.25;;;2.95;;
44068;SDS011;29738;51.234;5.484;2023-02-28T16:43:52;4.03;;;1.58;;
44068;SDS011;29738;51.234;5.484;2023-02-28T16:46:23;10.93;;;2.60;;
44068;SDS011;29738;51.234;5.484;2023-02-28T16:48:53;5.03;;;2.45;;
44068;SDS011;29738;51.234;5.484;2023-02-28T16:51:21;4.57;;;2.35;;
44068;SDS011;29738;51.234;5.484;2023-02-28T16:53:47;5.22;;;2.33;;
44068;SDS011;29738;51.234;5.484;2023-02-28T16:56:14;5.53;;;2.45;;
44068;SDS011;29738;51.234;5.484;2023-02-28T16:58:44;6.90;;;2.75;;
44068;SDS011;29738;51.234;5.484;2023-02-28T17:01:11;6.38;;;2.17;;
44068;SDS011;29738;51.234;5.484;2023-02-28T17:03:36;5.13;;;2.55;;
44068;SDS011;29738;51.234;5.484;2023-02-28T17:06:03;4.38;;;2.60;;
44068;SDS011;29738;51.234;5.484;2023-02-28T17:08:30;6.07;;;2.65;;
44068;SDS011;29738;51.234;5.484;2023-02-28T17:10:57;5.65;;;2.85;;
44068;SDS011;29738;51.234;5.484;2023-02-28T17:13:26;4.38;;;2.45;;
44068;SDS011;29738;51.234;5.484;2023-02-28T17:15:52;5.95;;;3.40;;
44068;SDS011;29738;51.234;5.484;2023-02-28T17:18:18;4.63;;;2.45;;
44068;SDS011;29738;51.234;5.484;2023-02-28T17:20:46;5.05;;;2.90;;
44068;SDS011;29738;51.234;5.484;2023-02-28T17:23:12;5.63;;;3.22;;
44068;SDS011;29738;51.234;5.484;2023-02-28T17:25:37;5.57;;;2.63;;
44068;SDS011;29738;51.234;5.484;2023-02-28T17:28:03;5.53;;;2.78;;
44068;SDS011;29738;51.234;5.484;2023-02-28T17:30:33;5.75;;;3.03;;
44068;SDS011;29738;51.234;5.484;2023-02-28T17:32:59;5.97;;;2.38;;
44068;SDS011;29738;51.234;5.484;2023-02-28T17:35:25;4.85;;;2.78;;
44068;SDS011;29738;51.234;5.484;2023-02-28T17:37:51;4.78;;;2.20;;
44068;SDS011;29738;51.234;5.484;2023-02-28T17:40:22;3.45;;;2.00;;
44068;SDS011;29738;51.234;5.484;2023-02-28T17:42:48;4.70;;;2.70;;